College Grove, TN (37046)

01:57 CDT le 26 octobre 2014 (GMT -0500)
Arrington Vineyards | Change Station
CLOSE
Current Station
Stations météorologiques personnelles
Location: Arrington, TN
Altitude: 725 ft
Stations météo à proximité

Alt. 725 ft 35.84 °N, 86.69 °W | Updated 6 seconds ago

Ciel dégagé
Ciel dégagé
52.8 ° F
Paraît 52.8 ° F
N
0.0
Vent Variable Vent de ONO
Gusts 0.0 mph

Aujourd'hui
Haut(e) -- | Bas -- ° F
--% Risque de précip.
Hier
Haut(e) -- | Bas -- ° F
Precip. -- pouce
7:03 AM 5:57 PM
Lune montante, 6% visible
Pression 30.03 pouce
Visibilité 0.2 Miles terrestres
Nuages Ciel dégagé
Point de rosée 51 ° F
Humidité 94%
Précipitations 0.00 pouce
Profondeur de la couche neigeuse Non disponible.
UV 0.0 sur 12
Pollen 1.50 sur 12
Ozone Bon
PM2.5 Moyen
Flu Activity No Activity
SPECI KMQY 260649Z AUTO 00000KT M1/4SM FG CLR 11/11 A3003 RMK AO2

More Conditions Fewer Conditions

Pression 30.03 pouce
Visibilité 0.2 Miles terrestres
Nuages Ciel dégagé
Point de rosée 51 ° F
Humidité 94%
Précipitations 0.00 pouce
Profondeur de la couche neigeuse Non disponible.
UV 0.0 sur 12
Pollen 1.50 sur 12
Ozone Bon
PM2.5 Moyen
Flu Activity No Activity
SPECI KMQY 260649Z AUTO 00000KT M1/4SM FG CLR 11/11 A3003 RMK AO2

More Conditions Fewer Conditions

10-Day Weather Forecast

Almanac

Astronomie

Oct. 26, 2014 Lever Coucher
Temps réel 07:03 CDT 17:57 CDT
Crépuscule civil 06:37 CDT 18:23 CDT
Crépuscule nautique 06:07 CDT 18:53 CDT
Crépuscule astronomique 05:37 CDT 19:23 CDT
Lune 09:37 CDT 20:12 CDT
Durée de lumière visible 11h 46m
Longueur du jour
10h 54m
Tomorrow will be 2m 4s shorter.
Lune montante, 6% of the Moon is Illuminated
Aujourd'hui
Lune montante
Oct 30
Premier quartier
Nov 6
Pleine lune
Nov 14
Dernier quartier
Nov 22
Nouveau

Extrêmes aujourd'hui

State Highs State Lows

Community

WunderPhotos

Upload Photos

1,765,117 Photos téléchargées !

Nearby

Qualité de l'air

  Qualité de l'air Indice de la qualité de l'air Polluant
Hier Moyen
PM2.5
Hier Bon
OZONE
Actuel Moyen
PM2.5
Actuel Bon
OZONE
dimanche Moyen
PM2.5
dimanche Bon
OZONE
lundi Moyen
PM2.5
lundi Bon
OZONE

Épaisseur de neige

Station Depth Altitude
Pas de nouvelles chutes de neige

Activité sismique

Ville Distance Mag. Time & Date
No recent earthquake activity has been reported nearby.
Minimum magnitude displayed is 2.5.

Températures des eaux côtières

Lieu Température
Aucun rapport de station

Stations météo à proximité